Latest Weather Observations for Blackall

IDQ60801

Issued at 7:02 pm EST Saturday 2 July 2016 (issued every 30 minutes, with the page automatically refreshed every 10 minutes)

About weather observations | Map of weather stations | Latest weather observations for QLD | Other Formats
Station Details ID: 036034 Name: BLACKALL AIRPORT Lat: -24.43 Lon: 145.43 Height: 281.3 m
Data from the previous 72 hours. | See also: Recent months at Blackall
Date/Time
EST
Temp
°C
App
Temp
°C
Dew
Point
°C
Rel
Hum
%
Delta-T
°C
Wind Press
QNH
hPa
Press
MSL
hPa
Rain since
9am
mm
Dir  Spd
km/h
Gust
km/h
Spd
kts
Gust
kts
02/07:00pm 13.5 9.2 3.0 49 4.7 SSE 15 19 8 10 1024.3 1024.1 0.0
02/06:30pm 13.6 10.0 3.1 49 4.7 S 11 15 6 8 1024.5 1024.3 0.0
02/06:00pm 15.2 10.9 3.4 45 5.4 SSE 15 19 8 10 1024.3 1024.1 0.0
02/05:30pm 16.2 12.7 3.3 42 6.0 SSE 11 17 6 9 1024.3 1024.1 0.0
02/05:00pm 17.4 13.4 3.0 38 6.7 SSE 13 19 7 10 1024.2 1024.0 0.0
02/04:30pm 18.3 14.1 3.8 38 6.9 S 15 22 8 12 1023.9 1023.7 0.0
02/04:00pm 18.4 13.2 2.3 34 7.4 SSE 19 24 10 13 1023.4 1023.2 0.0
02/03:30pm 18.7 14.0 3.3 36 7.3 SSE 17 24 9 13 1023.1 1022.9 0.0
02/03:00pm 18.6 13.4 3.3 36 7.2 SSE 20 26 11 14 1023.0 1022.8 0.0
02/02:30pm 19.2 14.5 5.3 40 6.9 SSE 19 26 10 14 1023.1 1022.9 0.0
02/02:00pm 18.6 13.5 4.0 38 7.0 SSE 20 32 11 17 1023.3 1023.1 0.0
02/01:30pm 18.6 14.2 4.8 40 6.7 SSE 17 24 9 13 1023.7 1023.5 0.0
02/01:00pm 17.8 13.3 4.4 41 6.4 SE 17 24 9 13 1024.2 1024.0 0.0
02/12:30pm 17.2 12.8 4.9 44 6.0 SSE 17 28 9 15 1024.8 1024.6 0.0
02/12:00pm 16.4 12.0 4.8 46 5.5 SE 17 24 9 13 1025.6 1025.3 0.0
02/11:30am 16.5 12.4 6.1 50 5.1 SE 17 24 9 13 1026.0 1025.8 0.0
02/11:00am 15.4 10.7 5.9 53 4.6 ESE 20 28 11 15 1026.3 1026.1 0.0
02/10:30am 14.6 8.9 5.1 53 4.5 ESE 24 32 13 17 1026.8 1026.6 0.0
02/10:00am 13.8 8.5 5.2 56 4.1 ESE 22 28 12 15 1027.0 1026.8 0.0
02/09:30am 13.2 8.6 6.3 63 3.3 ESE 20 28 11 15 1026.8 1026.6 0.0
02/09:00am 11.1 6.9 5.8 70 2.5 SE 17 26 9 14 1027.0 1026.8 0.0
02/08:30am 9.9 6.1 5.9 76 1.9 SE 15 19 8 10 1026.7 1026.5 0.0
02/08:00am 8.3 5.5 5.2 81 1.4 SSE 9 15 5 8 1026.7 1026.5 0.0
02/07:30am 7.1 4.7 4.4 83 1.2 SE 6 9 3 5 1026.5 1026.3 0.0
02/07:00am 7.6 4.4 5.1 84 1.1 SSE 11 15 6 8 1026.0 1025.8 0.0
02/06:30am 6.9 4.0 4.6 85 1.0 SSE 9 13 5 7 1025.2 1025.0 0.0
02/06:00am 6.8 3.9 4.5 85 1.0 SSE 9 13 5 7 1024.6 1024.4 0.0
02/05:30am 7.1 3.8 4.4 83 1.2 SE 11 13 6 7 1024.2 1024.0 0.0
02/05:00am 7.4 4.1 4.5 82 1.3 ESE 11 17 6 9 1024.1 1023.9 0.0
02/04:30am 7.7 4.0 4.7 81 1.3 SE 13 17 7 9 1023.9 1023.7 0.0
02/04:00am 8.1 4.9 4.9 80 1.4 SE 11 13 6 7 1024.0 1023.8 0.0
02/03:30am 7.9 4.3 5.0 82 1.3 SSE 13 17 7 9 1024.0 1023.8 0.0
02/03:00am 7.2 4.7 4.5 83 1.2 SE 7 11 4 6 1024.0 1023.8 0.0
02/02:30am 7.4 4.8 4.4 81 1.3 SE 7 9 4 5 1023.9 1023.7 0.0
02/02:00am 8.5 6.0 4.7 77 1.7 SE 7 7 4 4 1024.0 1023.8 0.0
02/01:30am 8.8 5.9 4.8 76 1.8 SE 9 13 5 7 1024.0 1023.8 0.0
02/01:00am 9.5 6.6 4.7 72 2.2 SE 9 11 5 6 1023.9 1023.7 0.0
02/12:30am 10.5 6.9 5.1 69 2.5 SSE 13 17 7 9 1023.9 1023.7 0.0
02/12:00am 10.7 7.4 4.8 67 2.7 SSE 11 15 6 8 1024.1 1023.9 0.0
 
Date/Time
EST
Temp
°C
App
Temp
°C
Dew
Point
°C
Rel
Hum
%
Delta-T
°C
Wind Press
QNH
hPa
Press
MSL
hPa
Rain since
9am
mm
Dir  Spd
km/h
Gust
km/h
Spd
kts
Gust
kts
01/11:30pm 11.8 8.6 5.0 63 3.2 SSE 11 13 6 7 1024.2 1024.0 0.0
01/11:00pm 12.5 8.9 5.0 60 3.5 S 13 19 7 10 1024.2 1024.0 0.0
01/10:30pm 12.8 9.5 4.5 57 3.9 SSE 11 15 6 8 1024.2 1024.0 0.0
01/10:00pm 13.5 9.8 4.6 55 4.1 S 13 19 7 10 1024.1 1023.9 0.0
01/09:30pm 13.7 10.0 4.3 53 4.4 S 13 17 7 9 1024.4 1024.2 0.0
01/09:00pm 14.3 10.6 4.6 52 4.5 S 13 17 7 9 1024.3 1024.1 0.0
01/08:30pm 14.4 10.7 4.4 51 4.7 S 13 19 7 10 1024.1 1023.9 0.0
01/08:00pm 14.3 10.6 4.6 52 4.5 S 13 17 7 9 1023.8 1023.6 0.0
01/07:30pm 14.9 11.6 4.3 49 5.0 SSE 11 13 6 7 1023.4 1023.2 0.0
01/07:00pm 15.3 11.9 4.1 47 5.2 S 11 15 6 8 1023.3 1023.1 0.0
01/06:30pm 15.9 12.5 4.0 45 5.6 SSE 11 13 6 7 1022.7 1022.4 0.0
01/06:00pm 16.7 13.2 3.7 42 6.1 S 11 15 6 8 1022.6 1022.3 0.0
01/05:30pm 18.1 14.2 3.2 37 7.0 SSW 13 19 7 10 1022.3 1022.0 0.0
01/05:00pm 19.6 15.2 2.9 33 7.9 S 15 20 8 11 1021.9 1021.6 0.0
01/04:30pm 20.3 15.7 3.9 34 8.0 SSW 17 26 9 14 1021.7 1021.4 0.0
01/04:00pm 20.3 16.0 3.5 33 8.1 S 15 20 8 11 1021.5 1021.3 0.0
01/03:30pm 20.4 16.4 4.8 36 7.7 S 15 24 8 13 1021.4 1021.2 0.0
01/03:00pm 20.5 16.3 3.7 33 8.1 S 15 26 8 14 1021.9 1021.6 0.0
01/02:30pm 20.6 16.9 4.2 34 8.0 S 13 19 7 10 1021.8 1021.5 0.0
01/02:00pm 20.1 15.0 4.2 35 7.7 S 20 26 11 14 1022.2 1021.9 0.0
01/01:30pm 19.5 15.3 3.6 35 7.6 S 15 26 8 14 1022.5 1022.2 0.0
01/01:00pm 19.4 15.2 3.6 35 7.5 S 15 22 8 12 1022.9 1022.7 0.0
01/12:30pm 19.0 14.4 3.6 36 7.4 S 17 26 9 14 1023.4 1023.2 0.0
01/12:00pm 18.8 14.0 4.6 39 6.9 SSE 19 28 10 15 1023.7 1023.5 0.0
01/11:30am 18.2 13.2 3.7 38 6.9 SSE 19 30 10 16 1024.0 1023.8 0.0
01/11:00am 17.4 12.2 3.3 39 6.6 SSE 20 28 11 15 1024.2 1024.0 0.0
01/10:30am 17.3 12.5 4.9 44 6.0 SE 19 26 10 14 1024.5 1024.3 0.0
01/10:00am 15.5 11.7 3.9 46 5.4 SSE 13 30 7 16 1024.6 1024.4 0.0
01/09:30am 13.9 10.4 5.3 56 4.1 SSE 13 20 7 11 1024.6 1024.3 0.0
01/09:00am 11.9 8.4 5.3 64 3.1 SSE 13 19 7 10 1024.5 1024.2 0.0
01/08:30am 10.1 7.4 5.7 74 2.1 SSE 9 13 5 7 1024.1 1023.8 0.0
01/08:00am 8.3 5.1 4.9 79 1.5 SE 11 13 6 7 1023.7 1023.4 0.0
01/07:30am 5.9 2.6 4.7 92 0.5 SSE 11 13 6 7 1023.4 1023.0 0.0
01/07:00am 4.0 0.7 2.7 91 0.5 S 9 11 5 6 1023.1 1022.7 0.0
01/06:30am 4.7 1.9 2.9 88 0.7 SSE 7 9 4 5 1022.6 1022.2 0.0
01/06:00am 5.3 2.2 3.5 88 0.8 SE 9 9 5 5 1022.2 1021.8 0.0
01/05:30am 5.5 2.5 4.0 90 0.6 SE 9 9 5 5 1021.8 1021.4 0.0
01/05:00am 5.1 2.0 3.8 91 0.6 SSE 9 11 5 6 1021.5 1021.2 0.0
01/04:30am 4.9 1.7 3.2 89 0.7 SSW 9 11 5 6 1021.5 1021.2 0.0
01/04:00am 5.5 3.0 3.8 89 0.7 SSE 6 7 3 4 1021.2 1020.9 0.0
01/03:30am 6.2 3.1 3.7 84 1.1 SSE 9 9 5 5 1020.8 1020.5 0.0
01/03:00am 6.5 3.8 3.8 83 1.2 SE 7 9 4 5 1020.6 1020.3 0.0
01/02:30am 7.2 4.6 4.3 82 1.3 SE 7 9 4 5 1020.8 1020.5 0.0
01/02:00am 7.9 5.4 4.5 79 1.5 SSE 7 7 4 4 1020.8 1020.5 0.0
01/01:30am 8.8 6.1 3.8 71 2.2 S 7 7 4 4 1021.0 1020.7 0.0
01/01:00am 9.6 6.2 4.2 69 2.4 S 11 13 6 7 1021.0 1020.7 0.0
01/12:30am 9.9 6.6 4.7 70 2.4 SSW 11 13 6 7 1021.0 1020.7 0.0
01/12:00am 10.0 7.2 5.2 72 2.2 SSW 9 11 5 6 1021.2 1020.9 0.0
 
Date/Time
EST
Temp
°C
App
Temp
°C
Dew
Point
°C
Rel
Hum
%
Delta-T
°C
Wind Press
QNH
hPa
Press
MSL
hPa
Rain since
9am
mm
Dir  Spd
km/h
Gust
km/h
Spd
kts
Gust
kts
30/11:30pm 10.3 7.7 6.3 76 1.9 S 9 13 5 7 1021.2 1020.9 0.0
30/11:00pm 8.8 6.2 6.3 84 1.2 S 9 9 5 5 1021.2 1020.9 0.0
30/10:30pm 9.5 7.6 6.9 84 1.2 SSW 6 7 3 4 1021.2 1020.9 0.0
30/10:00pm 10.0 8.6 7.4 84 1.3 SSW 4 11 2 6 1021.2 1020.9 0.0
30/09:30pm 10.3 9.7 7.4 82 1.4 CALM 0 0 0 0 1020.9 1020.6 0.0
30/09:00pm 10.9 9.9 7.2 78 1.8 SSE 2 6 1 3 1020.9 1020.6 0.0
30/08:30pm 11.0 9.9 7.1 77 1.9 S 2 6 1 3 1020.9 1020.6 0.0
30/08:00pm 11.5 10.0 7.0 74 2.2 SSE 4 9 2 5 1020.7 1020.4 0.0
30/07:30pm 12.5 11.9 7.6 72 2.4 CALM 0 0 0 0 1020.6 1020.3 0.0
30/07:00pm 13.0 12.3 6.8 66 3.0 CALM 0 0 0 0 1020.5 1020.1 0.0
30/06:30pm 14.2 13.5 6.8 61 3.6 CALM 0 0 0 0 1020.1 1019.7 0.0
30/06:00pm 16.6 15.8 6.4 51 5.1 CALM 0 0 0 0 1019.8 1019.4 0.0
30/05:30pm 19.5 17.5 6.3 42 6.7 W 6 7 3 4 1019.5 1019.1 0.0
30/05:00pm 20.4 18.2 6.0 39 7.3 WNW 7 13 4 7 1019.3 1018.9 0.0
30/04:30pm 21.5 18.4 5.4 35 8.1 NW 11 15 6 8 1019.2 1018.8 0.0
30/04:00pm 21.6 18.0 5.1 34 8.2 WNW 13 20 7 11 1019.3 1018.9 0.0
30/03:30pm 21.4 18.0 6.1 37 7.8 NNW 13 20 7 11 1019.5 1019.1 0.0
30/03:00pm 21.4 17.2 5.7 36 7.9 NW 17 26 9 14 1019.7 1019.3 0.0
30/02:30pm 21.3 18.9 6.8 39 7.5 NW 9 17 5 9 1020.0 1019.6 0.0
30/02:00pm 20.8 17.7 7.4 42 7.0 NW 13 20 7 11 1020.4 1020.0 0.0
30/01:30pm 20.9 18.3 7.9 43 6.8 NNW 11 22 6 12 1020.9 1020.6 0.0
30/01:00pm 20.0 15.6 6.7 42 6.8 NNW 19 26 10 14 1021.7 1021.3 0.0
30/12:30pm 19.3 15.2 7.7 47 6.0 NNW 19 30 10 16 1022.0 1021.6 0.0
30/12:00pm 19.1 14.8 7.2 46 6.1 NW 19 26 10 14 1022.6 1022.2 0.0
30/11:30am 18.5 13.3 7.3 48 5.7 N 24 32 13 17 1023.0 1022.6 0.0
30/11:00am 18.2 12.6 7.3 49 5.5 NNW 26 35 14 19 1023.5 1023.1 0.0
30/10:30am 17.1 11.8 6.9 51 5.1 N 24 32 13 17 1023.7 1023.4 0.0
30/10:00am 15.8 11.9 7.1 56 4.3 N 17 24 9 13 1023.6 1023.2 0.0
30/09:30am 13.7 9.6 6.1 60 3.7 N 17 20 9 11 1023.7 1023.4 0.0
30/09:00am 12.2 8.4 5.6 64 3.1 NNE 15 20 8 11 1023.6 1023.2 0.0
30/08:30am 10.6 7.4 5.2 69 2.5 NE 11 17 6 9 1023.1 1022.7 0.0
30/08:00am 8.4 5.5 4.4 76 1.8 NE 9 13 5 7 1022.8 1022.4 0.0
30/07:30am 5.9 2.3 2.7 80 1.3 NE 11 13 6 7 1022.5 1022.1 0.0
30/07:00am 5.3 1.6 2.3 81 1.2 NE 11 13 6 7 1022.4 1022.0 0.0
30/06:30am 5.9 1.4 2.4 78 1.5 NE 15 19 8 10 1022.2 1021.8 0.0
30/06:00am 6.1 2.5 2.9 80 1.3 ENE 11 13 6 7 1022.0 1021.6 0.0
30/05:30am 5.0 1.7 2.5 84 1.0 ENE 9 11 5 6 1021.8 1021.4 0.0
30/05:00am 4.3 1.5 2.0 85 0.9 NE 6 7 3 4 1021.9 1021.5 0.0
30/04:30am 4.1 1.5 1.1 81 1.2 ENE 4 6 2 3 1021.9 1021.5 0.0
30/04:00am 5.4 3.0 1.9 78 1.4 ENE 4 6 2 3 1021.9 1021.5 0.0
30/03:30am 6.4 3.0 1.9 73 1.9 ENE 9 11 5 6 1022.1 1021.7 0.0
30/03:00am 6.9 2.8 2.2 72 2.0 NE 13 15 7 8 1022.1 1021.7 0.0
30/02:30am 7.0 3.3 2.1 71 2.0 ENE 11 13 6 7 1022.2 1021.8 0.0
30/02:00am 6.8 3.4 1.7 70 2.1 ENE 9 13 5 7 1022.6 1022.2 0.0
30/01:30am 7.4 3.6 1.9 68 2.3 ENE 11 13 6 7 1022.9 1022.5 0.0
30/01:00am 7.0 3.2 1.7 69 2.2 ENE 11 13 6 7 1023.1 1022.7 0.0
30/12:30am 7.2 3.7 1.5 67 2.3 ENE 9 13 5 7 1023.1 1022.7 0.0
30/12:00am 7.4 3.6 1.7 67 2.4 NE 11 13 6 7 1023.1 1022.7 0.0
 
Date/Time
EST
Temp
°C
App
Temp
°C
Dew
Point
°C
Rel
Hum
%
Delta-T
°C
Wind Press
QNH
hPa
Press
MSL
hPa
Rain since
9am
mm
Dir  Spd
km/h
Gust
km/h
Spd
kts
Gust
kts
29/11:30pm 7.4 4.0 1.7 67 2.4 NE 9 13 5 7 1023.4 1023.0 0.0
29/11:00pm 8.3 4.6 2.1 65 2.6 ENE 11 13 6 7 1023.5 1023.1 0.0
29/10:30pm 8.3 4.6 2.1 65 2.6 E 11 13 6 7 1023.6 1023.2 0.0
29/10:00pm 8.8 5.5 2.4 64 2.7 E 9 13 5 7 1023.8 1023.5 0.0
29/09:30pm 8.2 5.0 3.1 70 2.2 SE 9 11 5 6 1023.7 1023.4 0.0
29/09:00pm 9.6 6.9 3.6 66 2.6 ENE 7 9 4 5 1023.5 1023.1 0.0
29/08:30pm 9.5 6.8 3.5 66 2.6 E 7 7 4 4 1023.6 1023.2 0.0
29/08:00pm 9.3 5.9 4.1 70 2.3 ESE 11 13 6 7 1023.5 1023.1 0.0
29/07:30pm 9.7 8.4 4.1 68 2.5 CALM 0 0 0 0 1023.3 1022.9 0.0

Other Formats:

Comma delimited format used in spreadsheet applications
http://www.bom.gov.au/fwo/IDQ60801/IDQ60801.95351.axf

JavaScript Object Notation format (JSON) in row-major order
http://www.bom.gov.au/fwo/IDQ60801/IDQ60801.95351.json